sensor_id;sensor_type;location;lat;lon;timestamp;P1;durP1;ratioP1;P2;durP2;ratioP2
71290;SDS011;59073;51.994;4.448;2023-05-02T00:02:02;10.20;;;10.05;;
71290;SDS011;59073;51.994;4.448;2023-05-02T00:04:28;9.60;;;9.52;;
71290;SDS011;59073;51.994;4.448;2023-05-02T00:06:53;9.53;;;9.52;;
71290;SDS011;59073;51.994;4.448;2023-05-02T00:09:19;8.91;;;8.87;;
71290;SDS011;59073;51.994;4.448;2023-05-02T00:11:44;9.57;;;9.50;;
71290;SDS011;59073;51.994;4.448;2023-05-02T00:14:10;9.48;;;9.41;;
71290;SDS011;59073;51.994;4.448;2023-05-02T00:16:35;9.15;;;9.05;;
71290;SDS011;59073;51.994;4.448;2023-05-02T00:19:01;9.89;;;9.86;;
71290;SDS011;59073;51.994;4.448;2023-05-02T00:21:26;9.55;;;9.42;;
71290;SDS011;59073;51.994;4.448;2023-05-02T00:23:53;9.37;;;9.21;;
71290;SDS011;59073;51.994;4.448;2023-05-02T00:26:21;8.44;;;8.35;;
71290;SDS011;59073;51.994;4.448;2023-05-02T00:28:47;8.01;;;7.93;;
71290;SDS011;59073;51.994;4.448;2023-05-02T00:31:12;7.35;;;7.32;;
71290;SDS011;59073;51.994;4.448;2023-05-02T00:33:37;6.83;;;6.82;;
71290;SDS011;59073;51.994;4.448;2023-05-02T00:36:03;5.76;;;5.75;;
71290;SDS011;59073;51.994;4.448;2023-05-02T00:38:28;4.39;;;4.39;;
71290;SDS011;59073;51.994;4.448;2023-05-02T00:40:54;4.16;;;4.16;;
71290;SDS011;59073;51.994;4.448;2023-05-02T00:43:19;3.94;;;3.94;;
71290;SDS011;59073;51.994;4.448;2023-05-02T00:45:45;3.99;;;3.99;;
71290;SDS011;59073;51.994;4.448;2023-05-02T00:48:11;3.62;;;3.62;;
71290;SDS011;59073;51.994;4.448;2023-05-02T00:50:38;3.00;;;3.00;;
71290;SDS011;59073;51.994;4.448;2023-05-02T00:53:07;2.88;;;2.88;;
71290;SDS011;59073;51.994;4.448;2023-05-02T00:55:34;2.92;;;2.92;;
71290;SDS011;59073;51.994;4.448;2023-05-02T00:58:13;3.00;;;3.00;;
71290;SDS011;59073;51.994;4.448;2023-05-02T01:03:25;3.30;;;3.30;;
71290;SDS011;59073;51.994;4.448;2023-05-02T01:08:46;3.15;;;3.14;;
71290;SDS011;59073;51.994;4.448;2023-05-02T01:11:27;3.48;;;3.46;;
71290;SDS011;59073;51.994;4.448;2023-05-02T01:14:04;3.71;;;3.64;;
71290;SDS011;59073;51.994;4.448;2023-05-02T01:16:33;3.64;;;3.49;;
71290;SDS011;59073;51.994;4.448;2023-05-02T01:19:07;3.75;;;3.63;;
71290;SDS011;59073;51.994;4.448;2023-05-02T01:21:38;3.10;;;3.07;;
71290;SDS011;59073;51.994;4.448;2023-05-02T01:24:09;3.12;;;3.05;;
71290;SDS011;59073;51.994;4.448;2023-05-02T01:26:50;3.31;;;3.24;;
71290;SDS011;59073;51.994;4.448;2023-05-02T01:29:26;2.75;;;2.75;;
71290;SDS011;59073;51.994;4.448;2023-05-02T01:31:54;2.66;;;2.65;;
71290;SDS011;59073;51.994;4.448;2023-05-02T01:34:23;2.78;;;2.72;;
71290;SDS011;59073;51.994;4.448;2023-05-02T01:36:52;2.46;;;2.39;;
71290;SDS011;59073;51.994;4.448;2023-05-02T01:39:23;2.58;;;2.57;;
71290;SDS011;59073;51.994;4.448;2023-05-02T01:41:50;2.45;;;2.45;;
71290;SDS011;59073;51.994;4.448;2023-05-02T01:44:21;2.35;;;2.35;;
71290;SDS011;59073;51.994;4.448;2023-05-02T01:46:48;2.52;;;2.48;;
71290;SDS011;59073;51.994;4.448;2023-05-02T01:49:18;3.12;;;2.97;;
71290;SDS011;59073;51.994;4.448;2023-05-02T01:51:47;3.64;;;3.39;;
71290;SDS011;59073;51.994;4.448;2023-05-02T01:54:15;3.56;;;3.31;;
71290;SDS011;59073;51.994;4.448;2023-05-02T01:56:43;3.80;;;3.51;;
71290;SDS011;59073;51.994;4.448;2023-05-02T01:59:11;3.71;;;3.39;;
71290;SDS011;59073;51.994;4.448;2023-05-02T02:01:41;2.86;;;2.67;;
71290;SDS011;59073;51.994;4.448;2023-05-02T02:04:09;2.88;;;2.73;;
71290;SDS011;59073;51.994;4.448;2023-05-02T02:06:38;3.01;;;2.80;;
71290;SDS011;59073;51.994;4.448;2023-05-02T02:09:10;3.20;;;3.00;;
71290;SDS011;59073;51.994;4.448;2023-05-02T02:11:36;3.02;;;2.84;;
71290;SDS011;59073;51.994;4.448;2023-05-02T02:14:16;2.64;;;2.47;;
71290;SDS011;59073;51.994;4.448;2023-05-02T02:16:45;3.20;;;2.93;;
71290;SDS011;59073;51.994;4.448;2023-05-02T02:19:12;2.92;;;2.70;;
71290;SDS011;59073;51.994;4.448;2023-05-02T02:21:39;2.96;;;2.68;;
71290;SDS011;59073;51.994;4.448;2023-05-02T02:24:07;2.56;;;2.36;;
71290;SDS011;59073;51.994;4.448;2023-05-02T02:26:35;2.08;;;1.92;;
71290;SDS011;59073;51.994;4.448;2023-05-02T02:29:02;2.14;;;1.97;;
71290;SDS011;59073;51.994;4.448;2023-05-02T02:31:31;2.17;;;2.01;;
71290;SDS011;59073;51.994;4.448;2023-05-02T02:33:59;2.51;;;2.28;;
71290;SDS011;59073;51.994;4.448;2023-05-02T02:36:28;2.33;;;2.11;;
71290;SDS011;59073;51.994;4.448;2023-05-02T02:39:23;2.17;;;1.96;;
71290;SDS011;59073;51.994;4.448;2023-05-02T02:42:24;2.22;;;1.97;;
71290;SDS011;59073;51.994;4.448;2023-05-02T02:47:53;2.31;;;2.02;;
71290;SDS011;59073;51.994;4.448;2023-05-02T02:50:30;2.06;;;1.78;;
71290;SDS011;59073;51.994;4.448;2023-05-02T02:53:06;2.03;;;1.75;;
71290;SDS011;59073;51.994;4.448;2023-05-02T02:55:46;1.89;;;1.64;;
71290;SDS011;59073;51.994;4.448;2023-05-02T02:58:38;2.26;;;1.93;;
71290;SDS011;59073;51.994;4.448;2023-05-02T03:01:20;2.07;;;1.75;;
71290;SDS011;59073;51.994;4.448;2023-05-02T03:03:48;1.58;;;1.36;;
71290;SDS011;59073;51.994;4.448;2023-05-02T03:06:17;1.74;;;1.51;;
71290;SDS011;59073;51.994;4.448;2023-05-02T03:08:43;1.79;;;1.52;;
71290;SDS011;59073;51.994;4.448;2023-05-02T03:11:09;1.48;;;1.24;;
71290;SDS011;59073;51.994;4.448;2023-05-02T03:13:35;1.23;;;1.03;;
71290;SDS011;59073;51.994;4.448;2023-05-02T03:19:05;1.84;;;1.54;;
71290;SDS011;59073;51.994;4.448;2023-05-02T03:21:32;1.54;;;1.29;;
71290;SDS011;59073;51.994;4.448;2023-05-02T03:24:00;1.86;;;1.52;;
71290;SDS011;59073;51.994;4.448;2023-05-02T03:26:26;1.93;;;1.59;;
71290;SDS011;59073;51.994;4.448;2023-05-02T03:28:52;1.93;;;1.61;;
71290;SDS011;59073;51.994;4.448;2023-05-02T03:31:18;1.66;;;1.38;;
71290;SDS011;59073;51.994;4.448;2023-05-02T03:33:43;1.95;;;1.64;;
71290;SDS011;59073;51.994;4.448;2023-05-02T03:36:09;2.00;;;1.69;;
71290;SDS011;59073;51.994;4.448;2023-05-02T03:38:35;2.39;;;2.00;;
71290;SDS011;59073;51.994;4.448;2023-05-02T03:41:00;1.83;;;1.52;;
71290;SDS011;59073;51.994;4.448;2023-05-02T03:43:27;1.96;;;1.65;;
71290;SDS011;59073;51.994;4.448;2023-05-02T03:45:52;2.16;;;1.82;;
71290;SDS011;59073;51.994;4.448;2023-05-02T03:48:18;2.17;;;1.82;;
71290;SDS011;59073;51.994;4.448;2023-05-02T03:50:44;2.40;;;1.99;;
71290;SDS011;59073;51.994;4.448;2023-05-02T03:53:09;2.20;;;1.83;;
71290;SDS011;59073;51.994;4.448;2023-05-02T03:55:38;2.02;;;1.68;;
71290;SDS011;59073;51.994;4.448;2023-05-02T03:58:05;2.00;;;1.66;;
71290;SDS011;59073;51.994;4.448;2023-05-02T04:00:31;1.99;;;1.66;;
71290;SDS011;59073;51.994;4.448;2023-05-02T04:02:56;1.85;;;1.56;;
71290;SDS011;59073;51.994;4.448;2023-05-02T04:05:22;1.90;;;1.55;;
71290;SDS011;59073;51.994;4.448;2023-05-02T04:07:47;2.16;;;1.77;;
71290;SDS011;59073;51.994;4.448;2023-05-02T04:10:13;2.10;;;1.77;;
71290;SDS011;59073;51.994;4.448;2023-05-02T04:12:41;1.72;;;1.46;;
71290;SDS011;59073;51.994;4.448;2023-05-02T04:15:07;2.10;;;1.77;;
71290;SDS011;59073;51.994;4.448;2023-05-02T04:17:34;1.69;;;1.42;;
71290;SDS011;59073;51.994;4.448;2023-05-02T04:19:59;1.91;;;1.59;;
71290;SDS011;59073;51.994;4.448;2023-05-02T04:22:25;2.02;;;1.66;;
71290;SDS011;59073;51.994;4.448;2023-05-02T04:24:50;1.66;;;1.39;;
71290;SDS011;59073;51.994;4.448;2023-05-02T04:27:16;1.76;;;1.50;;
71290;SDS011;59073;51.994;4.448;2023-05-02T04:29:41;2.11;;;1.80;;
71290;SDS011;59073;51.994;4.448;2023-05-02T04:32:07;1.93;;;1.60;;
71290;SDS011;59073;51.994;4.448;2023-05-02T04:34:32;1.76;;;1.50;;
71290;SDS011;59073;51.994;4.448;2023-05-02T04:36:57;2.01;;;1.71;;
71290;SDS011;59073;51.994;4.448;2023-05-02T04:39:24;2.29;;;1.89;;
71290;SDS011;59073;51.994;4.448;2023-05-02T04:41:49;2.02;;;1.67;;
71290;SDS011;59073;51.994;4.448;2023-05-02T04:44:14;1.86;;;1.57;;
71290;SDS011;59073;51.994;4.448;2023-05-02T04:46:40;1.91;;;1.59;;
71290;SDS011;59073;51.994;4.448;2023-05-02T04:49:06;2.38;;;1.94;;
71290;SDS011;59073;51.994;4.448;2023-05-02T04:51:31;2.02;;;1.67;;
71290;SDS011;59073;51.994;4.448;2023-05-02T04:53:57;2.24;;;1.83;;
71290;SDS011;59073;51.994;4.448;2023-05-02T04:56:22;3.07;;;2.47;;
71290;SDS011;59073;51.994;4.448;2023-05-02T04:58:48;2.36;;;1.86;;
71290;SDS011;59073;51.994;4.448;2023-05-02T05:01:13;2.90;;;2.37;;
71290;SDS011;59073;51.994;4.448;2023-05-02T05:03:38;2.67;;;2.15;;
71290;SDS011;59073;51.994;4.448;2023-05-02T05:06:04;3.00;;;2.41;;
71290;SDS011;59073;51.994;4.448;2023-05-02T05:08:29;2.70;;;2.16;;
71290;SDS011;59073;51.994;4.448;2023-05-02T05:10:55;2.80;;;2.24;;
71290;SDS011;59073;51.994;4.448;2023-05-02T05:13:21;3.24;;;2.59;;
71290;SDS011;59073;51.994;4.448;2023-05-02T05:15:46;3.01;;;2.44;;
71290;SDS011;59073;51.994;4.448;2023-05-02T05:18:11;2.71;;;2.23;;
71290;SDS011;59073;51.994;4.448;2023-05-02T05:20:37;2.97;;;2.49;;
71290;SDS011;59073;51.994;4.448;2023-05-02T05:23:02;2.72;;;2.33;;
71290;SDS011;59073;51.994;4.448;2023-05-02T05:25:28;2.97;;;2.51;;
71290;SDS011;59073;51.994;4.448;2023-05-02T05:27:53;3.46;;;2.88;;
71290;SDS011;59073;51.994;4.448;2023-05-02T05:30:20;3.54;;;2.84;;
71290;SDS011;59073;51.994;4.448;2023-05-02T05:32:46;4.16;;;3.24;;
71290;SDS011;59073;51.994;4.448;2023-05-02T05:35:11;3.68;;;2.89;;
71290;SDS011;59073;51.994;4.448;2023-05-02T05:37:37;4.20;;;3.31;;
71290;SDS011;59073;51.994;4.448;2023-05-02T05:40:05;4.07;;;3.13;;
71290;SDS011;59073;51.994;4.448;2023-05-02T05:42:31;3.55;;;2.74;;
71290;SDS011;59073;51.994;4.448;2023-05-02T05:44:57;3.12;;;2.50;;
71290;SDS011;59073;51.994;4.448;2023-05-02T05:47:22;3.63;;;2.98;;
71290;SDS011;59073;51.994;4.448;2023-05-02T05:49:54;2.83;;;2.39;;
71290;SDS011;59073;51.994;4.448;2023-05-02T05:52:20;2.60;;;2.28;;
71290;SDS011;59073;51.994;4.448;2023-05-02T05:54:46;2.89;;;2.57;;
71290;SDS011;59073;51.994;4.448;2023-05-02T05:57:12;2.81;;;2.46;;
71290;SDS011;59073;51.994;4.448;2023-05-02T05:59:37;2.80;;;2.48;;
71290;SDS011;59073;51.994;4.448;2023-05-02T06:02:03;2.46;;;2.18;;
71290;SDS011;59073;51.994;4.448;2023-05-02T06:04:29;2.95;;;2.57;;
71290;SDS011;59073;51.994;4.448;2023-05-02T06:06:54;2.54;;;2.22;;
71290;SDS011;59073;51.994;4.448;2023-05-02T06:09:20;2.24;;;2.04;;
71290;SDS011;59073;51.994;4.448;2023-05-02T06:11:45;2.47;;;2.24;;
71290;SDS011;59073;51.994;4.448;2023-05-02T06:14:11;2.20;;;1.97;;
71290;SDS011;59073;51.994;4.448;2023-05-02T06:16:36;2.52;;;2.19;;
71290;SDS011;59073;51.994;4.448;2023-05-02T06:19:01;2.54;;;2.16;;
71290;SDS011;59073;51.994;4.448;2023-05-02T06:21:27;2.85;;;2.35;;
71290;SDS011;59073;51.994;4.448;2023-05-02T06:23:52;2.99;;;2.45;;
71290;SDS011;59073;51.994;4.448;2023-05-02T06:26:18;2.88;;;2.37;;
71290;SDS011;59073;51.994;4.448;2023-05-02T06:28:43;2.90;;;2.43;;
71290;SDS011;59073;51.994;4.448;2023-05-02T06:31:09;2.78;;;2.32;;
71290;SDS011;59073;51.994;4.448;2023-05-02T06:33:34;2.88;;;2.44;;
71290;SDS011;59073;51.994;4.448;2023-05-02T06:36:01;2.44;;;2.07;;
71290;SDS011;59073;51.994;4.448;2023-05-02T06:38:27;2.35;;;2.06;;
71290;SDS011;59073;51.994;4.448;2023-05-02T06:40:52;2.74;;;2.47;;
71290;SDS011;59073;51.994;4.448;2023-05-02T06:43:18;3.14;;;2.84;;
71290;SDS011;59073;51.994;4.448;2023-05-02T06:45:43;2.26;;;2.08;;
71290;SDS011;59073;51.994;4.448;2023-05-02T06:48:09;2.49;;;2.32;;
71290;SDS011;59073;51.994;4.448;2023-05-02T06:50:35;2.69;;;2.48;;
71290;SDS011;59073;51.994;4.448;2023-05-02T06:53:01;2.11;;;1.92;;
71290;SDS011;59073;51.994;4.448;2023-05-02T06:55:27;2.33;;;2.11;;
71290;SDS011;59073;51.994;4.448;2023-05-02T06:57:53;2.02;;;1.81;;
71290;SDS011;59073;51.994;4.448;2023-05-02T07:00:19;2.31;;;2.09;;
71290;SDS011;59073;51.994;4.448;2023-05-02T07:02:46;2.00;;;1.83;;
71290;SDS011;59073;51.994;4.448;2023-05-02T07:05:13;1.94;;;1.80;;
71290;SDS011;59073;51.994;4.448;2023-05-02T07:07:42;2.06;;;1.88;;
71290;SDS011;59073;51.994;4.448;2023-05-02T07:10:08;1.98;;;1.77;;
71290;SDS011;59073;51.994;4.448;2023-05-02T07:12:35;2.34;;;2.10;;
71290;SDS011;59073;51.994;4.448;2023-05-02T07:15:01;2.21;;;1.97;;
71290;SDS011;59073;51.994;4.448;2023-05-02T07:17:26;2.01;;;1.81;;
71290;SDS011;59073;51.994;4.448;2023-05-02T07:19:52;1.84;;;1.66;;
71290;SDS011;59073;51.994;4.448;2023-05-02T07:22:18;2.19;;;1.92;;
71290;SDS011;59073;51.994;4.448;2023-05-02T07:24:43;2.19;;;1.88;;
71290;SDS011;59073;51.994;4.448;2023-05-02T07:27:09;2.37;;;2.02;;
71290;SDS011;59073;51.994;4.448;2023-05-02T07:29:35;2.43;;;2.08;;
71290;SDS011;59073;51.994;4.448;2023-05-02T07:32:02;2.32;;;2.00;;
71290;SDS011;59073;51.994;4.448;2023-05-02T07:34:28;2.12;;;1.83;;
71290;SDS011;59073;51.994;4.448;2023-05-02T07:36:54;2.10;;;1.79;;
71290;SDS011;59073;51.994;4.448;2023-05-02T07:39:20;2.84;;;2.40;;
71290;SDS011;59073;51.994;4.448;2023-05-02T07:41:46;2.56;;;2.13;;
71290;SDS011;59073;51.994;4.448;2023-05-02T07:44:11;2.50;;;2.14;;
71290;SDS011;59073;51.994;4.448;2023-05-02T07:46:36;2.68;;;2.38;;
71290;SDS011;59073;51.994;4.448;2023-05-02T07:49:02;2.11;;;1.91;;
71290;SDS011;59073;51.994;4.448;2023-05-02T07:51:27;2.32;;;2.07;;
71290;SDS011;59073;51.994;4.448;2023-05-02T07:53:53;2.22;;;1.97;;
71290;SDS011;59073;51.994;4.448;2023-05-02T07:56:22;2.08;;;1.90;;
71290;SDS011;59073;51.994;4.448;2023-05-02T07:58:50;1.77;;;1.59;;
71290;SDS011;59073;51.994;4.448;2023-05-02T08:01:16;1.95;;;1.73;;
71290;SDS011;59073;51.994;4.448;2023-05-02T08:03:42;2.25;;;1.93;;
71290;SDS011;59073;51.994;4.448;2023-05-02T08:06:08;2.07;;;1.79;;
71290;SDS011;59073;51.994;4.448;2023-05-02T08:08:34;2.08;;;1.81;;
71290;SDS011;59073;51.994;4.448;2023-05-02T08:11:00;2.28;;;2.02;;
71290;SDS011;59073;51.994;4.448;2023-05-02T08:13:25;1.83;;;1.63;;
71290;SDS011;59073;51.994;4.448;2023-05-02T08:15:51;2.18;;;1.94;;
71290;SDS011;59073;51.994;4.448;2023-05-02T08:18:22;1.95;;;1.73;;
71290;SDS011;59073;51.994;4.448;2023-05-02T08:20:50;1.65;;;1.49;;
71290;SDS011;59073;51.994;4.448;2023-05-02T08:23:16;1.82;;;1.62;;
71290;SDS011;59073;51.994;4.448;2023-05-02T08:25:41;1.66;;;1.50;;
71290;SDS011;59073;51.994;4.448;2023-05-02T08:28:07;1.75;;;1.58;;
71290;SDS011;59073;51.994;4.448;2023-05-02T08:30:32;1.60;;;1.48;;
71290;SDS011;59073;51.994;4.448;2023-05-02T08:32:58;1.48;;;1.35;;
71290;SDS011;59073;51.994;4.448;2023-05-02T08:35:23;1.68;;;1.53;;
71290;SDS011;59073;51.994;4.448;2023-05-02T08:37:48;1.38;;;1.25;;
71290;SDS011;59073;51.994;4.448;2023-05-02T08:40:14;1.62;;;1.47;;
71290;SDS011;59073;51.994;4.448;2023-05-02T08:42:41;1.26;;;1.13;;
71290;SDS011;59073;51.994;4.448;2023-05-02T08:45:10;1.48;;;1.32;;
71290;SDS011;59073;51.994;4.448;2023-05-02T08:47:39;1.45;;;1.30;;
71290;SDS011;59073;51.994;4.448;2023-05-02T08:50:04;1.57;;;1.41;;
71290;SDS011;59073;51.994;4.448;2023-05-02T08:52:33;1.66;;;1.45;;
71290;SDS011;59073;51.994;4.448;2023-05-02T08:55:00;1.45;;;1.29;;
71290;SDS011;59073;51.994;4.448;2023-05-02T08:57:27;1.55;;;1.42;;
71290;SDS011;59073;51.994;4.448;2023-05-02T08:59:54;1.26;;;1.17;;
71290;SDS011;59073;51.994;4.448;2023-05-02T09:02:36;1.46;;;1.36;;
71290;SDS011;59073;51.994;4.448;2023-05-02T09:05:27;1.34;;;1.22;;
71290;SDS011;59073;51.994;4.448;2023-05-02T09:08:00;1.29;;;1.20;;
71290;SDS011;59073;51.994;4.448;2023-05-02T09:10:27;1.29;;;1.20;;
71290;SDS011;59073;51.994;4.448;2023-05-02T09:12:52;1.54;;;1.43;;
71290;SDS011;59073;51.994;4.448;2023-05-02T09:15:18;1.49;;;1.41;;
71290;SDS011;59073;51.994;4.448;2023-05-02T09:17:45;1.17;;;1.12;;
71290;SDS011;59073;51.994;4.448;2023-05-02T09:20:13;1.45;;;1.38;;
71290;SDS011;59073;51.994;4.448;2023-05-02T09:22:50;1.38;;;1.34;;
71290;SDS011;59073;51.994;4.448;2023-05-02T09:25:16;1.51;;;1.46;;
71290;SDS011;59073;51.994;4.448;2023-05-02T09:27:53;1.48;;;1.42;;
71290;SDS011;59073;51.994;4.448;2023-05-02T09:30:21;1.60;;;1.53;;
71290;SDS011;59073;51.994;4.448;2023-05-02T09:32:49;1.38;;;1.32;;
71290;SDS011;59073;51.994;4.448;2023-05-02T09:35:15;1.58;;;1.50;;
71290;SDS011;59073;51.994;4.448;2023-05-02T09:37:56;1.64;;;1.55;;
71290;SDS011;59073;51.994;4.448;2023-05-02T09:40:22;1.59;;;1.50;;
71290;SDS011;59073;51.994;4.448;2023-05-02T09:42:49;1.79;;;1.70;;
71290;SDS011;59073;51.994;4.448;2023-05-02T09:45:22;1.86;;;1.75;;
71290;SDS011;59073;51.994;4.448;2023-05-02T09:47:49;1.72;;;1.61;;
71290;SDS011;59073;51.994;4.448;2023-05-02T09:50:30;1.66;;;1.57;;
71290;SDS011;59073;51.994;4.448;2023-05-02T09:53:03;1.67;;;1.59;;
71290;SDS011;59073;51.994;4.448;2023-05-02T09:55:30;1.55;;;1.50;;
71290;SDS011;59073;51.994;4.448;2023-05-02T09:57:56;1.43;;;1.39;;
71290;SDS011;59073;51.994;4.448;2023-05-02T10:00:22;1.46;;;1.41;;
71290;SDS011;59073;51.994;4.448;2023-05-02T10:02:49;1.33;;;1.31;;
71290;SDS011;59073;51.994;4.448;2023-05-02T10:05:15;1.84;;;1.81;;
71290;SDS011;59073;51.994;4.448;2023-05-02T10:07:42;1.61;;;1.60;;
71290;SDS011;59073;51.994;4.448;2023-05-02T10:10:10;1.55;;;1.51;;
71290;SDS011;59073;51.994;4.448;2023-05-02T10:12:42;1.80;;;1.74;;
71290;SDS011;59073;51.994;4.448;2023-05-02T10:15:10;1.65;;;1.61;;
71290;SDS011;59073;51.994;4.448;2023-05-02T10:17:43;1.46;;;1.41;;
71290;SDS011;59073;51.994;4.448;2023-05-02T10:20:15;1.55;;;1.48;;
71290;SDS011;59073;51.994;4.448;2023-05-02T10:22:46;1.52;;;1.43;;
71290;SDS011;59073;51.994;4.448;2023-05-02T10:25:14;1.78;;;1.68;;
71290;SDS011;59073;51.994;4.448;2023-05-02T10:27:40;1.70;;;1.62;;
71290;SDS011;59073;51.994;4.448;2023-05-02T10:30:06;1.63;;;1.56;;
71290;SDS011;59073;51.994;4.448;2023-05-02T10:32:33;1.44;;;1.38;;
71290;SDS011;59073;51.994;4.448;2023-05-02T10:35:04;2.00;;;1.91;;
71290;SDS011;59073;51.994;4.448;2023-05-02T10:37:32;1.57;;;1.46;;
71290;SDS011;59073;51.994;4.448;2023-05-02T10:40:00;2.11;;;1.95;;
71290;SDS011;59073;51.994;4.448;2023-05-02T10:42:27;1.78;;;1.60;;
71290;SDS011;59073;51.994;4.448;2023-05-02T10:44:54;1.56;;;1.41;;
71290;SDS011;59073;51.994;4.448;2023-05-02T10:47:20;1.93;;;1.72;;
71290;SDS011;59073;51.994;4.448;2023-05-02T10:49:56;1.74;;;1.56;;
71290;SDS011;59073;51.994;4.448;2023-05-02T10:52:26;1.87;;;1.69;;
71290;SDS011;59073;51.994;4.448;2023-05-02T10:58:18;1.98;;;1.81;;
71290;SDS011;59073;51.994;4.448;2023-05-02T11:00:32;1.94;;;1.79;;
71290;SDS011;59073;51.994;4.448;2023-05-02T11:02:58;1.75;;;1.64;;
71290;SDS011;59073;51.994;4.448;2023-05-02T11:05:25;1.85;;;1.73;;
71290;SDS011;59073;51.994;4.448;2023-05-02T11:10:39;2.09;;;1.91;;
71290;SDS011;59073;51.994;4.448;2023-05-02T11:13:04;2.22;;;1.99;;
71290;SDS011;59073;51.994;4.448;2023-05-02T11:18:00;2.26;;;2.06;;
71290;SDS011;59073;51.994;4.448;2023-05-02T11:20:27;1.79;;;1.68;;
71290;SDS011;59073;51.994;4.448;2023-05-02T11:22:57;2.17;;;2.06;;
71290;SDS011;59073;51.994;4.448;2023-05-02T11:25:49;1.81;;;1.74;;
71290;SDS011;59073;51.994;4.448;2023-05-02T11:31:00;1.71;;;1.69;;
71290;SDS011;59073;51.994;4.448;2023-05-02T11:33:27;2.06;;;2.00;;
71290;SDS011;59073;51.994;4.448;2023-05-02T11:35:53;2.20;;;2.13;;
71290;SDS011;59073;51.994;4.448;2023-05-02T11:38:21;1.82;;;1.75;;
71290;SDS011;59073;51.994;4.448;2023-05-02T11:40:54;1.67;;;1.58;;
71290;SDS011;59073;51.994;4.448;2023-05-02T11:43:21;1.83;;;1.74;;
71290;SDS011;59073;51.994;4.448;2023-05-02T11:45:49;1.85;;;1.77;;
71290;SDS011;59073;51.994;4.448;2023-05-02T11:48:17;1.49;;;1.43;;
71290;SDS011;59073;51.994;4.448;2023-05-02T11:50:47;1.92;;;1.82;;
71290;SDS011;59073;51.994;4.448;2023-05-02T11:53:19;2.32;;;2.18;;
71290;SDS011;59073;51.994;4.448;2023-05-02T11:55:47;1.99;;;1.86;;
71290;SDS011;59073;51.994;4.448;2023-05-02T11:58:15;1.66;;;1.56;;
71290;SDS011;59073;51.994;4.448;2023-05-02T12:00:42;2.06;;;1.93;;
71290;SDS011;59073;51.994;4.448;2023-05-02T12:03:18;2.13;;;2.02;;
71290;SDS011;59073;51.994;4.448;2023-05-02T12:05:54;1.84;;;1.77;;
71290;SDS011;59073;51.994;4.448;2023-05-02T12:08:21;2.07;;;1.98;;
71290;SDS011;59073;51.994;4.448;2023-05-02T12:10:49;1.69;;;1.62;;
71290;SDS011;59073;51.994;4.448;2023-05-02T12:13:16;1.70;;;1.63;;
71290;SDS011;59073;51.994;4.448;2023-05-02T12:15:43;1.84;;;1.76;;
71290;SDS011;59073;51.994;4.448;2023-05-02T12:18:09;1.73;;;1.70;;
71290;SDS011;59073;51.994;4.448;2023-05-02T12:20:35;1.74;;;1.73;;
71290;SDS011;59073;51.994;4.448;2023-05-02T12:23:03;1.87;;;1.86;;
71290;SDS011;59073;51.994;4.448;2023-05-02T12:25:31;1.95;;;1.89;;
71290;SDS011;59073;51.994;4.448;2023-05-02T12:28:01;1.90;;;1.85;;
71290;SDS011;59073;51.994;4.448;2023-05-02T12:30:27;1.78;;;1.74;;
71290;SDS011;59073;51.994;4.448;2023-05-02T12:32:58;1.69;;;1.65;;
71290;SDS011;59073;51.994;4.448;2023-05-02T12:35:28;1.91;;;1.87;;
71290;SDS011;59073;51.994;4.448;2023-05-02T12:38:06;1.69;;;1.64;;
71290;SDS011;59073;51.994;4.448;2023-05-02T12:40:36;1.83;;;1.77;;
71290;SDS011;59073;51.994;4.448;2023-05-02T12:43:05;1.90;;;1.87;;
71290;SDS011;59073;51.994;4.448;2023-05-02T12:45:34;1.99;;;1.94;;
71290;SDS011;59073;51.994;4.448;2023-05-02T12:48:01;1.77;;;1.75;;
71290;SDS011;59073;51.994;4.448;2023-05-02T12:50:41;1.74;;;1.70;;
71290;SDS011;59073;51.994;4.448;2023-05-02T12:53:06;1.83;;;1.77;;
71290;SDS011;59073;51.994;4.448;2023-05-02T12:55:32;1.88;;;1.78;;
71290;SDS011;59073;51.994;4.448;2023-05-02T13:00:26;1.82;;;1.75;;
71290;SDS011;59073;51.994;4.448;2023-05-02T13:02:51;1.72;;;1.66;;
71290;SDS011;59073;51.994;4.448;2023-05-02T13:05:17;1.49;;;1.43;;
71290;SDS011;59073;51.994;4.448;2023-05-02T13:07:43;1.89;;;1.84;;
71290;SDS011;59073;51.994;4.448;2023-05-02T13:10:09;1.89;;;1.83;;
71290;SDS011;59073;51.994;4.448;2023-05-02T13:12:36;1.71;;;1.65;;
71290;SDS011;59073;51.994;4.448;2023-05-02T13:15:05;1.86;;;1.78;;
71290;SDS011;59073;51.994;4.448;2023-05-02T13:17:33;1.81;;;1.76;;
71290;SDS011;59073;51.994;4.448;2023-05-02T13:19:59;1.67;;;1.65;;
71290;SDS011;59073;51.994;4.448;2023-05-02T13:22:26;1.65;;;1.64;;
71290;SDS011;59073;51.994;4.448;2023-05-02T13:24:52;1.63;;;1.62;;
71290;SDS011;59073;51.994;4.448;2023-05-02T13:27:18;1.80;;;1.80;;
71290;SDS011;59073;51.994;4.448;2023-05-02T13:29:47;1.71;;;1.71;;
71290;SDS011;59073;51.994;4.448;2023-05-02T13:32:13;1.85;;;1.82;;
71290;SDS011;59073;51.994;4.448;2023-05-02T13:34:38;1.85;;;1.78;;
71290;SDS011;59073;51.994;4.448;2023-05-02T13:37:04;1.85;;;1.77;;
71290;SDS011;59073;51.994;4.448;2023-05-02T13:39:29;1.67;;;1.59;;
71290;SDS011;59073;51.994;4.448;2023-05-02T13:41:55;1.61;;;1.55;;
71290;SDS011;59073;51.994;4.448;2023-05-02T13:44:20;1.77;;;1.72;;
71290;SDS011;59073;51.994;4.448;2023-05-02T13:46:45;1.86;;;1.80;;
71290;SDS011;59073;51.994;4.448;2023-05-02T13:49:11;1.80;;;1.74;;
71290;SDS011;59073;51.994;4.448;2023-05-02T13:51:37;1.91;;;1.84;;
71290;SDS011;59073;51.994;4.448;2023-05-02T13:54:03;1.90;;;1.82;;
71290;SDS011;59073;51.994;4.448;2023-05-02T13:56:28;2.09;;;1.97;;
71290;SDS011;59073;51.994;4.448;2023-05-02T13:58:54;1.85;;;1.83;;
71290;SDS011;59073;51.994;4.448;2023-05-02T14:01:19;1.85;;;1.85;;
71290;SDS011;59073;51.994;4.448;2023-05-02T14:03:45;1.95;;;1.95;;
71290;SDS011;59073;51.994;4.448;2023-05-02T14:06:10;1.70;;;1.70;;
71290;SDS011;59073;51.994;4.448;2023-05-02T14:08:35;1.93;;;1.93;;
71290;SDS011;59073;51.994;4.448;2023-05-02T14:11:01;1.94;;;1.93;;
71290;SDS011;59073;51.994;4.448;2023-05-02T14:13:27;1.78;;;1.77;;
71290;SDS011;59073;51.994;4.448;2023-05-02T14:15:52;1.88;;;1.88;;
71290;SDS011;59073;51.994;4.448;2023-05-02T14:18:18;1.83;;;1.83;;
71290;SDS011;59073;51.994;4.448;2023-05-02T14:20:44;1.89;;;1.89;;
71290;SDS011;59073;51.994;4.448;2023-05-02T14:23:09;2.15;;;2.15;;
71290;SDS011;59073;51.994;4.448;2023-05-02T14:25:35;1.87;;;1.87;;
71290;SDS011;59073;51.994;4.448;2023-05-02T14:28:01;1.96;;;1.96;;
71290;SDS011;59073;51.994;4.448;2023-05-02T14:30:27;1.84;;;1.84;;
71290;SDS011;59073;51.994;4.448;2023-05-02T14:32:53;2.07;;;2.06;;
71290;SDS011;59073;51.994;4.448;2023-05-02T14:35:19;2.21;;;2.19;;
71290;SDS011;59073;51.994;4.448;2023-05-02T14:37:44;2.13;;;2.08;;
71290;SDS011;59073;51.994;4.448;2023-05-02T14:40:11;2.16;;;2.08;;
71290;SDS011;59073;51.994;4.448;2023-05-02T14:42:38;2.49;;;2.39;;
71290;SDS011;59073;51.994;4.448;2023-05-02T14:45:04;2.24;;;2.17;;
71290;SDS011;59073;51.994;4.448;2023-05-02T14:47:30;2.19;;;2.13;;
71290;SDS011;59073;51.994;4.448;2023-05-02T14:49:55;2.49;;;2.42;;
71290;SDS011;59073;51.994;4.448;2023-05-02T14:52:21;2.17;;;2.12;;
71290;SDS011;59073;51.994;4.448;2023-05-02T14:54:46;2.57;;;2.50;;
71290;SDS011;59073;51.994;4.448;2023-05-02T14:57:12;2.57;;;2.50;;
71290;SDS011;59073;51.994;4.448;2023-05-02T14:59:38;2.37;;;2.36;;
71290;SDS011;59073;51.994;4.448;2023-05-02T15:02:04;2.48;;;2.45;;
71290;SDS011;59073;51.994;4.448;2023-05-02T15:04:29;2.52;;;2.49;;
71290;SDS011;59073;51.994;4.448;2023-05-02T15:06:55;2.37;;;2.28;;
71290;SDS011;59073;51.994;4.448;2023-05-02T15:09:22;2.54;;;2.43;;
71290;SDS011;59073;51.994;4.448;2023-05-02T15:11:52;2.60;;;2.51;;
71290;SDS011;59073;51.994;4.448;2023-05-02T15:14:17;2.46;;;2.37;;
71290;SDS011;59073;51.994;4.448;2023-05-02T15:16:43;2.63;;;2.55;;